sensor_id;sensor_type;location;lat;lon;timestamp;pressure;altitude;pressure_sealevel;temperature;humidity
7264;BME280;3673;52.480;13.348;2023-03-14T00:02:23;98825.34;;;17.16;53.06
7264;BME280;3673;52.480;13.348;2023-03-14T00:04:54;98826.75;;;17.07;53.25
7264;BME280;3673;52.480;13.348;2023-03-14T00:07:21;98824.69;;;17.12;53.00
7264;BME280;3673;52.480;13.348;2023-03-14T00:09:50;98810.63;;;17.12;52.99
7264;BME280;3673;52.480;13.348;2023-03-14T00:12:16;98808.56;;;17.17;52.83
7264;BME280;3673;52.480;13.348;2023-03-14T00:14:43;98812.13;;;16.86;53.72
7264;BME280;3673;52.480;13.348;2023-03-14T00:17:10;98786.31;;;16.91;53.58
7264;BME280;3673;52.480;13.348;2023-03-14T00:19:38;98784.91;;;16.99;53.37
7264;BME280;3673;52.480;13.348;2023-03-14T00:22:05;98791.38;;;17.10;53.33
7264;BME280;3673;52.480;13.348;2023-03-14T00:24:32;98783.50;;;16.94;53.70
7264;BME280;3673;52.480;13.348;2023-03-14T00:26:58;98766.91;;;16.76;54.31
7264;BME280;3673;52.480;13.348;2023-03-14T00:29:25;98759.56;;;16.81;54.17
7264;BME280;3673;52.480;13.348;2023-03-14T00:31:52;98762.19;;;16.97;53.78
7264;BME280;3673;52.480;13.348;2023-03-14T00:34:18;98756.94;;;17.11;53.19
7264;BME280;3673;52.480;13.348;2023-03-14T00:36:46;98748.50;;;17.05;53.44
7264;BME280;3673;52.480;13.348;2023-03-14T00:39:13;98750.53;;;16.85;53.99
7264;BME280;3673;52.480;13.348;2023-03-14T00:41:40;98747.50;;;16.77;54.39
7264;BME280;3673;52.480;13.348;2023-03-14T00:44:07;98750.66;;;16.68;54.50
7264;BME280;3673;52.480;13.348;2023-03-14T00:46:33;98765.91;;;16.47;55.13
7264;BME280;3673;52.480;13.348;2023-03-14T00:49:00;98755.75;;;16.71;54.63
7264;BME280;3673;52.480;13.348;2023-03-14T00:51:27;98745.16;;;16.57;54.93
7264;BME280;3673;52.480;13.348;2023-03-14T00:53:55;98734.66;;;16.40;55.61
7264;BME280;3673;52.480;13.348;2023-03-14T00:56:22;98724.44;;;16.49;55.46
7264;BME280;3673;52.480;13.348;2023-03-14T00:58:48;98721.66;;;16.37;55.57
7264;BME280;3673;52.480;13.348;2023-03-14T01:01:17;98724.59;;;16.62;55.17
7264;BME280;3673;52.480;13.348;2023-03-14T01:03:45;98716.38;;;16.37;55.99
7264;BME280;3673;52.480;13.348;2023-03-14T01:06:14;98712.88;;;16.36;56.02
7264;BME280;3673;52.480;13.348;2023-03-14T01:08:43;98694.44;;;16.21;56.47
7264;BME280;3673;52.480;13.348;2023-03-14T01:11:14;98704.78;;;16.39;55.94
7264;BME280;3673;52.480;13.348;2023-03-14T01:13:42;98715.78;;;16.16;56.82
7264;BME280;3673;52.480;13.348;2023-03-14T01:16:10;98710.59;;;15.99;57.31
7264;BME280;3673;52.480;13.348;2023-03-14T01:18:39;98732.31;;;16.04;57.08
7264;BME280;3673;52.480;13.348;2023-03-14T01:21:12;98740.91;;;16.08;57.03
7264;BME280;3673;52.480;13.348;2023-03-14T01:23:40;98756.81;;;16.06;57.11
7264;BME280;3673;52.480;13.348;2023-03-14T01:26:10;98776.25;;;15.88;57.45
7264;BME280;3673;52.480;13.348;2023-03-14T01:28:38;98773.56;;;16.05;57.10
7264;BME280;3673;52.480;13.348;2023-03-14T01:31:07;98767.00;;;15.96;57.18
7264;BME280;3673;52.480;13.348;2023-03-14T01:33:36;98777.31;;;16.01;57.17
7264;BME280;3673;52.480;13.348;2023-03-14T01:36:04;98784.59;;;15.96;57.34
7264;BME280;3673;52.480;13.348;2023-03-14T01:38:32;98780.25;;;15.95;57.68
7264;BME280;3673;52.480;13.348;2023-03-14T01:41:00;98780.53;;;16.06;57.16
7264;BME280;3673;52.480;13.348;2023-03-14T01:43:29;98775.84;;;15.95;57.26
7264;BME280;3673;52.480;13.348;2023-03-14T01:46:37;98792.03;;;16.36;56.21
7264;BME280;3673;52.480;13.348;2023-03-14T01:49:19;98790.06;;;16.09;57.19
7264;BME280;3673;52.480;13.348;2023-03-14T01:51:52;98799.34;;;16.00;57.03
7264;BME280;3673;52.480;13.348;2023-03-14T01:54:25;98801.72;;;16.05;57.16
7264;BME280;3673;52.480;13.348;2023-03-14T01:56:59;98795.09;;;15.98;57.42
7264;BME280;3673;52.480;13.348;2023-03-14T01:59:48;98781.13;;;16.11;57.21
7264;BME280;3673;52.480;13.348;2023-03-14T02:02:16;98773.03;;;15.98;57.55
7264;BME280;3673;52.480;13.348;2023-03-14T02:04:43;98768.88;;;16.41;56.44
7264;BME280;3673;52.480;13.348;2023-03-14T02:07:14;98768.09;;;15.92;57.58
7264;BME280;3673;52.480;13.348;2023-03-14T02:09:43;98760.88;;;16.12;56.70
7264;BME280;3673;52.480;13.348;2023-03-14T02:12:13;98751.53;;;15.90;57.51
7264;BME280;3673;52.480;13.348;2023-03-14T02:14:41;98755.66;;;15.94;57.51
7264;BME280;3673;52.480;13.348;2023-03-14T02:17:17;98745.72;;;16.15;56.56
7264;BME280;3673;52.480;13.348;2023-03-14T02:20:11;98748.38;;;15.84;57.47
7264;BME280;3673;52.480;13.348;2023-03-14T02:22:42;98748.72;;;15.93;57.19
7264;BME280;3673;52.480;13.348;2023-03-14T02:25:16;98756.34;;;15.82;57.62
7264;BME280;3673;52.480;13.348;2023-03-14T02:27:45;98740.06;;;15.59;58.39
7264;BME280;3673;52.480;13.348;2023-03-14T02:30:16;98740.47;;;15.84;57.25
7264;BME280;3673;52.480;13.348;2023-03-14T02:32:47;98748.66;;;15.78;57.62
7264;BME280;3673;52.480;13.348;2023-03-14T02:35:20;98738.50;;;15.87;57.34
7264;BME280;3673;52.480;13.348;2023-03-14T02:37:52;98731.53;;;15.86;57.37
7264;BME280;3673;52.480;13.348;2023-03-14T02:40:19;98726.31;;;15.85;57.20
7264;BME280;3673;52.480;13.348;2023-03-14T02:42:48;98732.50;;;15.68;57.51
7264;BME280;3673;52.480;13.348;2023-03-14T02:45:43;98745.28;;;15.76;57.57
7264;BME280;3673;52.480;13.348;2023-03-14T02:48:17;98721.13;;;15.68;57.31
7264;BME280;3673;52.480;13.348;2023-03-14T02:50:47;98716.75;;;15.51;57.97
7264;BME280;3673;52.480;13.348;2023-03-14T02:53:17;98717.63;;;15.67;57.63
7264;BME280;3673;52.480;13.348;2023-03-14T02:55:46;98716.28;;;15.76;57.26
7264;BME280;3673;52.480;13.348;2023-03-14T02:58:15;98702.78;;;15.98;56.70
7264;BME280;3673;52.480;13.348;2023-03-14T03:00:42;98695.28;;;16.06;56.42
7264;BME280;3673;52.480;13.348;2023-03-14T03:03:08;98686.75;;;15.85;56.77
7264;BME280;3673;52.480;13.348;2023-03-14T03:05:41;98681.50;;;15.69;57.23
7264;BME280;3673;52.480;13.348;2023-03-14T03:08:09;98671.56;;;15.74;57.29
7264;BME280;3673;52.480;13.348;2023-03-14T03:10:36;98650.78;;;15.68;56.80
7264;BME280;3673;52.480;13.348;2023-03-14T03:13:03;98653.94;;;15.59;57.34
7264;BME280;3673;52.480;13.348;2023-03-14T03:15:31;98645.50;;;15.53;57.50
7264;BME280;3673;52.480;13.348;2023-03-14T03:17:58;98634.16;;;15.68;57.06
7264;BME280;3673;52.480;13.348;2023-03-14T03:20:25;98643.13;;;15.95;56.48
7264;BME280;3673;52.480;13.348;2023-03-14T03:22:52;98637.44;;;15.87;56.24
7264;BME280;3673;52.480;13.348;2023-03-14T03:25:19;98643.66;;;15.70;56.51
7264;BME280;3673;52.480;13.348;2023-03-14T03:27:45;98655.66;;;15.60;56.80
7264;BME280;3673;52.480;13.348;2023-03-14T03:30:13;98662.28;;;15.83;56.52
7264;BME280;3673;52.480;13.348;2023-03-14T03:32:41;98664.56;;;15.89;56.25
7264;BME280;3673;52.480;13.348;2023-03-14T03:35:09;98679.97;;;15.81;56.51
7264;BME280;3673;52.480;13.348;2023-03-14T03:37:36;98672.81;;;15.67;56.73
7264;BME280;3673;52.480;13.348;2023-03-14T03:40:05;98679.53;;;15.73;56.56
7264;BME280;3673;52.480;13.348;2023-03-14T03:42:32;98672.09;;;15.48;57.19
7264;BME280;3673;52.480;13.348;2023-03-14T03:45:00;98677.06;;;15.70;56.83
7264;BME280;3673;52.480;13.348;2023-03-14T03:47:27;98671.19;;;15.65;56.75
7264;BME280;3673;52.480;13.348;2023-03-14T03:49:55;98664.13;;;15.65;56.74
7264;BME280;3673;52.480;13.348;2023-03-14T03:52:22;98652.94;;;15.93;56.18
7264;BME280;3673;52.480;13.348;2023-03-14T03:54:49;98658.09;;;15.63;56.40
7264;BME280;3673;52.480;13.348;2023-03-14T03:57:15;98660.81;;;15.62;56.71
7264;BME280;3673;52.480;13.348;2023-03-14T03:59:42;98656.22;;;15.65;56.32
7264;BME280;3673;52.480;13.348;2023-03-14T04:02:09;98662.03;;;15.39;57.03
7264;BME280;3673;52.480;13.348;2023-03-14T04:04:36;98669.75;;;15.59;56.56
7264;BME280;3673;52.480;13.348;2023-03-14T04:07:05;98672.47;;;15.58;56.69
7264;BME280;3673;52.480;13.348;2023-03-14T04:09:32;98658.09;;;15.79;55.83
7264;BME280;3673;52.480;13.348;2023-03-14T04:11:58;98652.31;;;15.57;56.49
7264;BME280;3673;52.480;13.348;2023-03-14T04:14:25;98657.50;;;15.58;56.56
7264;BME280;3673;52.480;13.348;2023-03-14T04:16:52;98660.75;;;15.63;56.23
7264;BME280;3673;52.480;13.348;2023-03-14T04:19:18;98662.88;;;15.88;55.70
7264;BME280;3673;52.480;13.348;2023-03-14T04:21:46;98656.50;;;15.76;55.87
7264;BME280;3673;52.480;13.348;2023-03-14T04:24:14;98655.47;;;15.79;55.71
7264;BME280;3673;52.480;13.348;2023-03-14T04:26:41;98654.47;;;15.97;55.17
7264;BME280;3673;52.480;13.348;2023-03-14T04:29:08;98646.19;;;16.03;54.80
7264;BME280;3673;52.480;13.348;2023-03-14T04:31:35;98643.22;;;15.93;54.85
7264;BME280;3673;52.480;13.348;2023-03-14T04:34:01;98638.47;;;16.00;54.77
7264;BME280;3673;52.480;13.348;2023-03-14T04:36:28;98629.94;;;15.95;54.74
7264;BME280;3673;52.480;13.348;2023-03-14T04:38:55;98626.38;;;15.96;54.59
7264;BME280;3673;52.480;13.348;2023-03-14T04:41:23;98637.19;;;15.76;54.84
7264;BME280;3673;52.480;13.348;2023-03-14T04:43:49;98621.03;;;15.98;54.61
7264;BME280;3673;52.480;13.348;2023-03-14T04:46:16;98615.84;;;15.65;55.38
7264;BME280;3673;52.480;13.348;2023-03-14T04:48:43;98601.41;;;15.56;55.47
7264;BME280;3673;52.480;13.348;2023-03-14T04:51:10;98600.38;;;15.74;54.94
7264;BME280;3673;52.480;13.348;2023-03-14T04:53:36;98601.03;;;15.62;55.36
7264;BME280;3673;52.480;13.348;2023-03-14T04:56:04;98596.78;;;15.91;54.55
7264;BME280;3673;52.480;13.348;2023-03-14T04:58:32;98592.53;;;16.04;54.17
7264;BME280;3673;52.480;13.348;2023-03-14T05:01:02;98604.28;;;15.67;54.99
7264;BME280;3673;52.480;13.348;2023-03-14T05:03:29;98602.00;;;15.77;54.73
7264;BME280;3673;52.480;13.348;2023-03-14T05:05:55;98612.88;;;15.86;54.49
7264;BME280;3673;52.480;13.348;2023-03-14T05:08:23;98610.13;;;15.88;54.51
7264;BME280;3673;52.480;13.348;2023-03-14T05:10:52;98611.09;;;15.87;54.25
7264;BME280;3673;52.480;13.348;2023-03-14T05:13:19;98607.16;;;15.94;54.15
7264;BME280;3673;52.480;13.348;2023-03-14T05:15:48;98604.69;;;15.75;54.52
7264;BME280;3673;52.480;13.348;2023-03-14T05:18:16;98596.69;;;15.61;54.86
7264;BME280;3673;52.480;13.348;2023-03-14T05:20:42;98595.44;;;15.84;54.13
7264;BME280;3673;52.480;13.348;2023-03-14T05:23:09;98580.66;;;15.66;54.51
7264;BME280;3673;52.480;13.348;2023-03-14T05:25:36;98585.00;;;15.67;54.46
7264;BME280;3673;52.480;13.348;2023-03-14T05:28:03;98593.63;;;16.00;53.71
7264;BME280;3673;52.480;13.348;2023-03-14T05:30:30;98581.84;;;15.60;54.38
7264;BME280;3673;52.480;13.348;2023-03-14T05:33:00;98575.78;;;15.58;54.66
7264;BME280;3673;52.480;13.348;2023-03-14T05:35:27;98570.53;;;15.58;54.47
7264;BME280;3673;52.480;13.348;2023-03-14T05:37:53;98582.34;;;15.67;54.08
7264;BME280;3673;52.480;13.348;2023-03-14T05:40:20;98581.81;;;15.76;53.89
7264;BME280;3673;52.480;13.348;2023-03-14T05:42:47;98578.84;;;15.82;53.39
7264;BME280;3673;52.480;13.348;2023-03-14T05:45:14;98588.94;;;15.42;54.07
7264;BME280;3673;52.480;13.348;2023-03-14T05:47:40;98586.25;;;15.60;53.88
7264;BME280;3673;52.480;13.348;2023-03-14T05:50:10;98596.94;;;15.88;53.04
7264;BME280;3673;52.480;13.348;2023-03-14T05:52:37;98580.25;;;15.58;53.88
7264;BME280;3673;52.480;13.348;2023-03-14T05:55:04;98584.22;;;15.49;53.95
7264;BME280;3673;52.480;13.348;2023-03-14T05:57:31;98588.22;;;15.56;53.75
7264;BME280;3673;52.480;13.348;2023-03-14T05:59:58;98587.28;;;15.73;53.00
7264;BME280;3673;52.480;13.348;2023-03-14T06:02:25;98585.09;;;15.95;52.44
7264;BME280;3673;52.480;13.348;2023-03-14T06:04:52;98580.47;;;15.84;52.38
7264;BME280;3673;52.480;13.348;2023-03-14T06:07:20;98582.25;;;15.84;52.46
7264;BME280;3673;52.480;13.348;2023-03-14T06:09:47;98571.88;;;15.65;52.49
7264;BME280;3673;52.480;13.348;2023-03-14T06:12:14;98576.06;;;15.69;52.68
7264;BME280;3673;52.480;13.348;2023-03-14T06:14:40;98574.56;;;15.95;51.99
7264;BME280;3673;52.480;13.348;2023-03-14T06:17:07;98582.34;;;15.67;52.20
7264;BME280;3673;52.480;13.348;2023-03-14T06:19:34;98573.44;;;15.99;51.40
7264;BME280;3673;52.480;13.348;2023-03-14T06:22:00;98582.00;;;16.18;50.81
7264;BME280;3673;52.480;13.348;2023-03-14T06:24:28;98591.38;;;16.08;50.92
7264;BME280;3673;52.480;13.348;2023-03-14T06:26:55;98588.66;;;16.10;50.70
7264;BME280;3673;52.480;13.348;2023-03-14T06:29:22;98579.63;;;15.84;51.45
7264;BME280;3673;52.480;13.348;2023-03-14T06:31:49;98586.75;;;15.98;50.96
7264;BME280;3673;52.480;13.348;2023-03-14T06:34:15;98573.03;;;16.07;50.60
7264;BME280;3673;52.480;13.348;2023-03-14T06:36:42;98576.88;;;16.01;50.73
7264;BME280;3673;52.480;13.348;2023-03-14T06:39:09;98579.03;;;16.24;50.28
7264;BME280;3673;52.480;13.348;2023-03-14T06:41:37;98593.94;;;15.64;51.40
7264;BME280;3673;52.480;13.348;2023-03-14T06:44:04;98602.56;;;15.98;50.71
7264;BME280;3673;52.480;13.348;2023-03-14T06:46:31;98607.00;;;16.27;50.04
7264;BME280;3673;52.480;13.348;2023-03-14T06:49:00;98605.56;;;16.21;50.02
7264;BME280;3673;52.480;13.348;2023-03-14T06:51:27;98606.09;;;16.12;50.04
7264;BME280;3673;52.480;13.348;2023-03-14T06:53:54;98621.09;;;15.96;50.35
7264;BME280;3673;52.480;13.348;2023-03-14T06:56:21;98612.03;;;16.16;50.06
7264;BME280;3673;52.480;13.348;2023-03-14T06:58:49;98607.72;;;16.44;49.46
7264;BME280;3673;52.480;13.348;2023-03-14T07:01:21;98626.03;;;16.02;50.27
7264;BME280;3673;52.480;13.348;2023-03-14T07:03:49;98621.25;;;16.38;49.57
7264;BME280;3673;52.480;13.348;2023-03-14T07:06:16;98623.00;;;16.69;48.74
7264;BME280;3673;52.480;13.348;2023-03-14T07:08:43;98622.53;;;16.77;48.45
7264;BME280;3673;52.480;13.348;2023-03-14T07:11:09;98622.66;;;16.30;49.66
7264;BME280;3673;52.480;13.348;2023-03-14T07:13:36;98623.09;;;16.22;49.91
7264;BME280;3673;52.480;13.348;2023-03-14T07:16:07;98623.22;;;16.35;49.59
7264;BME280;3673;52.480;13.348;2023-03-14T07:18:34;98620.56;;;16.51;49.22
7264;BME280;3673;52.480;13.348;2023-03-14T07:21:00;98633.16;;;16.61;49.00
7264;BME280;3673;52.480;13.348;2023-03-14T07:23:27;98630.50;;;16.16;50.01
7264;BME280;3673;52.480;13.348;2023-03-14T07:25:55;98637.09;;;16.38;49.74
7264;BME280;3673;52.480;13.348;2023-03-14T07:28:22;98642.84;;;16.31;49.81
7264;BME280;3673;52.480;13.348;2023-03-14T07:30:49;98645.44;;;16.46;49.72
7264;BME280;3673;52.480;13.348;2023-03-14T07:33:17;98641.25;;;16.58;49.31
7264;BME280;3673;52.480;13.348;2023-03-14T07:35:44;98644.84;;;16.57;49.30
7264;BME280;3673;52.480;13.348;2023-03-14T07:38:11;98645.63;;;16.73;48.87
7264;BME280;3673;52.480;13.348;2023-03-14T07:40:37;98642.47;;;16.37;49.62
7264;BME280;3673;52.480;13.348;2023-03-14T07:43:04;98649.50;;;16.68;49.06
7264;BME280;3673;52.480;13.348;2023-03-14T07:45:31;98657.91;;;16.29;49.92
7264;BME280;3673;52.480;13.348;2023-03-14T07:47:58;98648.22;;;16.59;49.15
7264;BME280;3673;52.480;13.348;2023-03-14T07:50:26;98659.63;;;16.89;48.36
7264;BME280;3673;52.480;13.348;2023-03-14T07:52:55;98655.53;;;16.24;50.04
7264;BME280;3673;52.480;13.348;2023-03-14T07:55:21;98658.50;;;16.34;49.53
7264;BME280;3673;52.480;13.348;2023-03-14T07:57:48;98645.53;;;16.75;48.84
7264;BME280;3673;52.480;13.348;2023-03-14T08:00:16;98647.13;;;16.63;49.11
7264;BME280;3673;52.480;13.348;2023-03-14T08:02:43;98643.28;;;16.83;48.75
7264;BME280;3673;52.480;13.348;2023-03-14T08:05:10;98641.25;;;17.02;48.24
7264;BME280;3673;52.480;13.348;2023-03-14T08:07:38;98640.84;;;16.80;48.27
7264;BME280;3673;52.480;13.348;2023-03-14T08:10:06;98625.22;;;16.91;48.40
7264;BME280;3673;52.480;13.348;2023-03-14T08:12:34;98634.09;;;17.04;48.17
7264;BME280;3673;52.480;13.348;2023-03-14T08:15:00;98632.25;;;17.05;47.86
7264;BME280;3673;52.480;13.348;2023-03-14T08:17:27;98617.94;;;17.23;47.65
7264;BME280;3673;52.480;13.348;2023-03-14T08:19:54;98624.75;;;17.27;47.63
7264;BME280;3673;52.480;13.348;2023-03-14T08:22:21;98626.91;;;17.06;47.80
7264;BME280;3673;52.480;13.348;2023-03-14T08:24:49;98626.16;;;17.04;48.08
7264;BME280;3673;52.480;13.348;2023-03-14T08:27:16;98628.63;;;17.07;47.93
7264;BME280;3673;52.480;13.348;2023-03-14T08:29:42;98627.66;;;16.94;48.16
7264;BME280;3673;52.480;13.348;2023-03-14T08:32:09;98627.56;;;17.38;47.29
7264;BME280;3673;52.480;13.348;2023-03-14T08:34:36;98632.78;;;17.11;47.79
7264;BME280;3673;52.480;13.348;2023-03-14T08:37:05;98627.66;;;16.94;48.37
7264;BME280;3673;52.480;13.348;2023-03-14T08:39:32;98632.19;;;17.06;47.60
7264;BME280;3673;52.480;13.348;2023-03-14T08:42:00;98635.94;;;16.88;47.97
7264;BME280;3673;52.480;13.348;2023-03-14T08:44:27;98648.16;;;17.33;47.29
7264;BME280;3673;52.480;13.348;2023-03-14T08:46:53;98652.38;;;17.07;47.86
7264;BME280;3673;52.480;13.348;2023-03-14T08:49:20;98645.22;;;17.37;47.08
7264;BME280;3673;52.480;13.348;2023-03-14T08:51:47;98658.44;;;17.37;47.15
7264;BME280;3673;52.480;13.348;2023-03-14T08:54:14;98646.63;;;17.29;47.08
7264;BME280;3673;52.480;13.348;2023-03-14T08:56:40;98653.50;;;17.31;47.04
7264;BME280;3673;52.480;13.348;2023-03-14T08:59:08;98666.09;;;17.28;47.21
7264;BME280;3673;52.480;13.348;2023-03-14T09:01:36;98656.81;;;17.07;47.21
7264;BME280;3673;52.480;13.348;2023-03-14T09:04:03;98657.78;;;17.20;46.68
7264;BME280;3673;52.480;13.348;2023-03-14T09:06:30;98652.69;;;17.31;46.60
7264;BME280;3673;52.480;13.348;2023-03-14T09:08:56;98646.81;;;17.54;46.03
7264;BME280;3673;52.480;13.348;2023-03-14T09:11:23;98640.09;;;17.91;45.49
7264;BME280;3673;52.480;13.348;2023-03-14T09:13:50;98632.03;;;17.92;45.44
7264;BME280;3673;52.480;13.348;2023-03-14T09:16:18;98636.38;;;18.47;44.76
7264;BME280;3673;52.480;13.348;2023-03-14T09:18:45;98628.03;;;18.53;44.05
7264;BME280;3673;52.480;13.348;2023-03-14T09:21:11;98619.16;;;18.27;44.72
7264;BME280;3673;52.480;13.348;2023-03-14T09:23:39;98614.91;;;17.98;45.18
7264;BME280;3673;52.480;13.348;2023-03-14T09:26:06;98622.13;;;17.82;45.16
7264;BME280;3673;52.480;13.348;2023-03-14T09:28:33;98618.66;;;18.08;44.88
7264;BME280;3673;52.480;13.348;2023-03-14T09:31:06;98614.84;;;18.12;44.54
7264;BME280;3673;52.480;13.348;2023-03-14T09:33:34;98623.13;;;18.08;44.80
7264;BME280;3673;52.480;13.348;2023-03-14T09:36:01;98616.81;;;18.23;44.51
7264;BME280;3673;52.480;13.348;2023-03-14T09:38:28;98613.94;;;18.52;43.52
7264;BME280;3673;52.480;13.348;2023-03-14T09:40:57;98612.19;;;18.39;43.37
7264;BME280;3673;52.480;13.348;2023-03-14T09:43:27;98624.81;;;18.48;42.82
7264;BME280;3673;52.480;13.348;2023-03-14T09:45:55;98624.38;;;18.15;43.69
7264;BME280;3673;52.480;13.348;2023-03-14T09:48:29;98614.72;;;18.28;43.75
7264;BME280;3673;52.480;13.348;2023-03-14T09:51:01;98627.16;;;18.13;43.91
7264;BME280;3673;52.480;13.348;2023-03-14T09:53:37;98630.94;;;18.09;43.62
7264;BME280;3673;52.480;13.348;2023-03-14T09:56:12;98618.63;;;18.35;43.16
7264;BME280;3673;52.480;13.348;2023-03-14T09:58:42;98626.25;;;18.00;43.57
7264;BME280;3673;52.480;13.348;2023-03-14T10:01:15;98626.09;;;18.16;43.74
7264;BME280;3673;52.480;13.348;2023-03-14T10:03:44;98627.63;;;18.06;43.81
7264;BME280;3673;52.480;13.348;2023-03-14T10:06:14;98627.34;;;18.10;43.82
7264;BME280;3673;52.480;13.348;2023-03-14T10:08:42;98621.44;;;18.19;43.29
7264;BME280;3673;52.480;13.348;2023-03-14T10:11:15;98638.47;;;17.88;43.92
7264;BME280;3673;52.480;13.348;2023-03-14T10:14:01;98631.25;;;18.05;43.40
7264;BME280;3673;52.480;13.348;2023-03-14T10:16:31;98630.09;;;18.09;43.23
7264;BME280;3673;52.480;13.348;2023-03-14T10:19:03;98628.09;;;18.12;42.84
7264;BME280;3673;52.480;13.348;2023-03-14T10:21:37;98626.88;;;17.77;43.35
7264;BME280;3673;52.480;13.348;2023-03-14T10:24:10;98618.41;;;17.98;43.08
7264;BME280;3673;52.480;13.348;2023-03-14T10:26:37;98631.13;;;18.06;43.02
7264;BME280;3673;52.480;13.348;2023-03-14T10:29:11;98628.44;;;18.20;42.65
7264;BME280;3673;52.480;13.348;2023-03-14T10:31:52;98630.31;;;18.18;42.50
7264;BME280;3673;52.480;13.348;2023-03-14T10:34:24;98638.25;;;18.18;42.28
7264;BME280;3673;52.480;13.348;2023-03-14T10:36:58;98623.44;;;17.89;42.74
7264;BME280;3673;52.480;13.348;2023-03-14T10:39:40;98630.78;;;17.71;42.96
7264;BME280;3673;52.480;13.348;2023-03-14T10:42:19;98637.44;;;18.18;41.56
7264;BME280;3673;52.480;13.348;2023-03-14T10:44:53;98638.53;;;18.01;42.09
7264;BME280;3673;52.480;13.348;2023-03-14T10:47:24;98635.94;;;18.14;42.16
7264;BME280;3673;52.480;13.348;2023-03-14T10:49:54;98636.03;;;18.12;42.10
7264;BME280;3673;52.480;13.348;2023-03-14T10:52:24;98628.72;;;17.89;42.28
7264;BME280;3673;52.480;13.348;2023-03-14T10:54:57;98627.53;;;17.80;42.49
7264;BME280;3673;52.480;13.348;2023-03-14T10:57:24;98637.09;;;18.49;41.45
7264;BME280;3673;52.480;13.348;2023-03-14T10:59:52;98636.72;;;18.01;42.37
7264;BME280;3673;52.480;13.348;2023-03-14T11:02:40;98635.97;;;17.99;42.28
7264;BME280;3673;52.480;13.348;2023-03-14T11:05:27;98639.06;;;18.06;42.11
7264;BME280;3673;52.480;13.348;2023-03-14T11:08:02;98631.84;;;17.81;42.91
7264;BME280;3673;52.480;13.348;2023-03-14T11:10:33;98628.69;;;17.76;43.03
7264;BME280;3673;52.480;13.348;2023-03-14T11:13:15;98635.91;;;18.28;41.96
7264;BME280;3673;52.480;13.348;2023-03-14T11:15:51;98631.09;;;18.20;42.33
7264;BME280;3673;52.480;13.348;2023-03-14T11:18:48;98623.19;;;18.06;42.76
7264;BME280;3673;52.480;13.348;2023-03-14T11:21:21;98619.38;;;17.97;42.95
7264;BME280;3673;52.480;13.348;2023-03-14T11:24:04;98626.88;;;17.77;43.66
7264;BME280;3673;52.480;13.348;2023-03-14T11:26:42;98635.34;;;17.96;42.97
7264;BME280;3673;52.480;13.348;2023-03-14T11:29:21;98629.88;;;18.12;43.15
7264;BME280;3673;52.480;13.348;2023-03-14T11:31:50;98635.38;;;18.09;43.11
7264;BME280;3673;52.480;13.348;2023-03-14T11:34:28;98633.31;;;17.73;43.94
7264;BME280;3673;52.480;13.348;2023-03-14T11:37:00;98626.53;;;17.95;43.69
7264;BME280;3673;52.480;13.348;2023-03-14T11:39:38;98632.47;;;17.58;44.76
7264;BME280;3673;52.480;13.348;2023-03-14T11:42:11;98623.94;;;17.81;44.92
7264;BME280;3673;52.480;13.348;2023-03-14T11:44:41;98629.31;;;17.94;44.85
7264;BME280;3673;52.480;13.348;2023-03-14T11:47:14;98640.91;;;17.91;45.21
7264;BME280;3673;52.480;13.348;2023-03-14T11:49:46;98630.00;;;17.69;45.62
7264;BME280;3673;52.480;13.348;2023-03-14T11:52:20;98623.44;;;17.89;45.55
7264;BME280;3673;52.480;13.348;2023-03-14T11:54:53;98631.13;;;18.06;45.27
7264;BME280;3673;52.480;13.348;2023-03-14T11:57:22;98622.66;;;18.01;45.38
7264;BME280;3673;52.480;13.348;2023-03-14T11:59:55;98626.22;;;17.73;46.07
7264;BME280;3673;52.480;13.348;2023-03-14T12:02:33;98628.31;;;17.54;46.48
7264;BME280;3673;52.480;13.348;2023-03-14T12:05:29;98615.66;;;17.73;46.23
7264;BME280;3673;52.480;13.348;2023-03-14T12:08:29;98614.97;;;18.11;45.72
7264;BME280;3673;52.480;13.348;2023-03-14T12:11:05;98612.81;;;18.03;45.60
7264;BME280;3673;52.480;13.348;2023-03-14T12:13:38;98605.63;;;18.05;45.59
7264;BME280;3673;52.480;13.348;2023-03-14T12:16:18;98610.78;;;17.94;45.77
7264;BME280;3673;52.480;13.348;2023-03-14T12:18:46;98610.38;;;18.39;45.00
7264;BME280;3673;52.480;13.348;2023-03-14T12:21:13;98605.06;;;18.27;45.05
7264;BME280;3673;52.480;13.348;2023-03-14T12:23:44;98598.78;;;18.15;45.25
7264;BME280;3673;52.480;13.348;2023-03-14T12:26:19;98599.06;;;18.37;44.97
7264;BME280;3673;52.480;13.348;2023-03-14T12:28:50;98595.97;;;18.31;45.00
7264;BME280;3673;52.480;13.348;2023-03-14T12:31:42;98600.03;;;18.49;44.76
7264;BME280;3673;52.480;13.348;2023-03-14T12:34:31;98598.19;;;18.24;45.77
7264;BME280;3673;52.480;13.348;2023-03-14T12:37:25;98595.53;;;18.24;46.55
7264;BME280;3673;52.480;13.348;2023-03-14T12:40:04;98591.91;;;18.25;46.62
7264;BME280;3673;52.480;13.348;2023-03-14T12:42:45;98584.81;;;18.13;47.21
7264;BME280;3673;52.480;13.348;2023-03-14T12:45:27;98590.25;;;18.24;47.66
7264;BME280;3673;52.480;13.348;2023-03-14T12:48:09;98580.91;;;18.58;46.91
7264;BME280;3673;52.480;13.348;2023-03-14T12:50:44;98581.97;;;18.68;45.84
7264;BME280;3673;52.480;13.348;2023-03-14T12:53:52;98579.44;;;18.79;45.64
7264;BME280;3673;52.480;13.348;2023-03-14T12:56:32;98584.56;;;18.43;44.88
7264;BME280;3673;52.480;13.348;2023-03-14T12:59:31;98590.31;;;18.10;46.89
7264;BME280;3673;52.480;13.348;2023-03-14T13:02:10;98595.88;;;18.06;48.75
7264;BME280;3673;52.480;13.348;2023-03-14T13:04:46;98597.47;;;18.08;49.03
7264;BME280;3673;52.480;13.348;2023-03-14T13:07:34;98601.50;;;17.32;52.30
7264;BME280;3673;52.480;13.348;2023-03-14T13:10:20;98604.81;;;17.35;53.51
7264;BME280;3673;52.480;13.348;2023-03-14T13:12:52;98596.97;;;16.91;54.73
7264;BME280;3673;52.480;13.348;2023-03-14T13:15:27;98599.72;;;16.76;56.14
7264;BME280;3673;52.480;13.348;2023-03-14T13:18:01;98593.69;;;16.74;56.04
7264;BME280;3673;52.480;13.348;2023-03-14T13:20:31;98593.31;;;16.80;54.94
7264;BME280;3673;52.480;13.348;2023-03-14T13:23:00;98585.59;;;16.91;55.24
7264;BME280;3673;52.480;13.348;2023-03-14T13:25:35;98574.00;;;17.08;55.29
7264;BME280;3673;52.480;13.348;2023-03-14T13:28:03;98571.16;;;19.09;51.05